Time;durP1;ratioP1;P1;durP2;ratioP2;P2;SDS_P1;SDS_P2;PMS_P1;PMS_P2;Temp;Humidity;BMP_temperature;BMP_pressure;BME280_temperature;BME280_humidity;BME280_pressure;Samples;Min_cycle;Max_cycle;Signal;HPM_P1;HPM_P2
2021/03/06 00:01:30;;;;;;;9.23;6.68;;;2.80;80.00;;;;;;5073681;28;20223;-46
2021/03/06 00:03:57;;;;;;;13.00;6.93;;;2.70;79.80;;;;;;5073977;28;20202;-46
2021/03/06 00:06:23;;;;;;;14.23;6.88;;;2.60;79.80;;;;;;5073898;28;20194;-47
2021/03/06 00:08:49;;;;;;;12.50;7.05;;;2.70;79.80;;;;;;5074103;28;20668;-46
2021/03/06 00:11:16;;;;;;;12.68;6.25;;;2.80;80.00;;;;;;5073570;28;20260;-47
2021/03/06 00:13:42;;;;;;;12.93;6.18;;;2.90;80.20;;;;;;5073297;28;20198;-47
2021/03/06 00:16:09;;;;;;;9.00;5.40;;;2.60;79.90;;;;;;5073599;28;20667;-46
2021/03/06 00:18:36;;;;;;;11.73;6.82;;;2.60;79.30;;;;;;5073330;28;20188;-46
2021/03/06 00:21:03;;;;;;;9.57;6.30;;;2.80;80.00;;;;;;5055107;28;20249;-46
2021/03/06 00:23:30;;;;;;;10.90;6.90;;;2.70;80.00;;;;;;5055038;28;20225;-46
2021/03/06 00:25:56;;;;;;;8.25;5.57;;;2.70;80.10;;;;;;5073294;28;20621;-46
2021/03/06 00:28:23;;;;;;;9.77;6.15;;;2.20;79.70;;;;;;5072772;28;20203;-46
2021/03/06 00:30:49;;;;;;;12.63;7.05;;;2.70;80.20;;;;;;5072477;28;20714;-46
2021/03/06 00:33:16;;;;;;;14.38;6.60;;;2.60;80.00;;;;;;5037796;28;20261;-46
2021/03/06 00:35:42;;;;;;;9.02;5.80;;;2.80;80.30;;;;;;5054488;28;20206;-46
2021/03/06 00:38:10;;;;;;;12.85;5.53;;;2.90;80.60;;;;;;5072603;28;20195;-46
2021/03/06 00:40:36;;;;;;;12.10;5.25;;;2.80;80.50;;;;;;5072708;28;20183;-47
2021/03/06 00:43:02;;;;;;;9.98;5.43;;;2.60;79.60;;;;;;5072147;28;20215;-46
2021/03/06 00:45:28;;;;;;;8.43;5.70;;;2.60;80.20;;;;;;5072946;28;20199;-45
2021/03/06 00:47:55;;;;;;;7.90;5.65;;;2.60;80.40;;;;;;5072729;28;20249;-44
2021/03/06 00:50:27;;;;;;;9.05;5.82;;;2.70;80.60;;;;;;5054540;28;20195;-45
2021/03/06 00:52:54;;;;;;;7.60;4.90;;;2.60;80.60;;;;;;5054349;28;20246;-46
2021/03/06 00:55:25;;;;;;;12.27;5.40;;;2.80;81.00;;;;;;5054598;28;20229;-45
2021/03/06 00:57:52;;;;;;;8.35;5.75;;;2.50;80.70;;;;;;5054713;28;20200;-45
2021/03/06 01:00:19;;;;;;;6.47;4.57;;;2.50;80.90;;;;;;5072505;28;20214;-44
2021/03/06 01:02:45;;;;;;;8.50;5.15;;;2.60;80.90;;;;;;5072210;28;20223;-43
2021/03/06 01:05:13;;;;;;;9.27;5.45;;;2.60;81.20;;;;;;5074619;28;20552;-44
2021/03/06 01:07:40;;;;;;;7.03;3.83;;;2.60;81.20;;;;;;5058554;28;20204;-44
2021/03/06 01:10:10;;;;;;;6.05;4.68;;;2.30;80.50;;;;;;5075175;28;20199;-45
2021/03/06 01:12:37;;;;;;;6.20;4.38;;;2.40;81.10;;;;;;5072228;28;20290;-45
2021/03/06 01:15:05;;;;;;;6.13;3.85;;;2.60;81.60;;;;;;5072136;28;20278;-45
2021/03/06 01:17:31;;;;;;;6.68;4.70;;;2.30;81.40;;;;;;5072405;28;20222;-46
2021/03/06 01:19:57;;;;;;;7.13;4.78;;;2.40;81.50;;;;;;5071789;28;20278;-45
2021/03/06 01:22:24;;;;;;;6.13;4.40;;;2.30;81.60;;;;;;5071656;28;20214;-45
2021/03/06 01:24:50;;;;;;;5.15;3.80;;;2.00;81.40;;;;;;5072148;28;20191;-45
2021/03/06 01:27:16;;;;;;;8.82;4.60;;;2.60;82.10;;;;;;5072364;28;20689;-45
2021/03/06 01:29:43;;;;;;;7.65;4.32;;;2.50;81.20;;;;;;5071941;28;20671;-44
2021/03/06 01:32:10;;;;;;;4.50;3.58;;;2.60;82.20;;;;;;5072106;28;20246;-45
2021/03/06 01:34:36;;;;;;;5.80;3.97;;;2.30;82.00;;;;;;5071597;28;20396;-46
2021/03/06 01:37:03;;;;;;;9.13;4.25;;;2.40;82.10;;;;;;5071941;28;20252;-44
2021/03/06 01:39:29;;;;;;;6.97;4.65;;;2.40;82.10;;;;;;5072010;28;20897;-45
2021/03/06 01:41:56;;;;;;;4.47;3.50;;;2.50;82.40;;;;;;5071719;28;20215;-45
2021/03/06 01:44:22;;;;;;;8.90;4.35;;;2.20;82.20;;;;;;5071344;28;20225;-45
2021/03/06 01:46:50;;;;;;;7.30;4.30;;;2.40;82.50;;;;;;5072005;28;20198;-45
2021/03/06 01:49:16;;;;;;;9.95;5.28;;;2.20;82.50;;;;;;5071702;28;20198;-45
2021/03/06 01:51:43;;;;;;;5.50;3.92;;;2.00;82.40;;;;;;5071504;28;20223;-44
2021/03/06 01:54:11;;;;;;;6.65;3.72;;;2.10;82.50;;;;;;5071230;28;20198;-44
2021/03/06 01:56:37;;;;;;;6.95;4.60;;;2.10;82.60;;;;;;5071558;28;20199;-45
2021/03/06 01:59:04;;;;;;;6.15;4.18;;;2.20;82.50;;;;;;5071553;28;20556;-47
2021/03/06 02:01:31;;;;;;;8.70;4.70;;;2.10;82.40;;;;;;5071500;28;20223;-45
2021/03/06 02:03:59;;;;;;;12.57;5.25;;;2.40;82.90;;;;;;5071303;28;20195;-45
2021/03/06 02:06:25;;;;;;;9.40;4.07;;;2.50;83.10;;;;;;5053782;28;20203;-45
2021/03/06 02:08:51;;;;;;;7.63;4.50;;;2.30;83.10;;;;;;5071441;28;20652;-45
2021/03/06 02:11:28;;;;;;;9.20;3.75;;;2.10;82.90;;;;;;5071281;28;20226;-46
2021/03/06 02:14:09;;;;;;;6.07;4.15;;;2.40;83.50;;;;;;5071336;28;20725;-45
2021/03/06 02:16:39;;;;;;;9.07;4.68;;;2.30;83.50;;;;;;5071414;28;20191;-46
2021/03/06 02:19:20;;;;;;;6.38;4.28;;;2.10;83.10;;;;;;5071401;28;20195;-43
2021/03/06 02:22:06;;;;;;;8.52;4.80;;;2.20;83.80;;;;;;5071439;28;20218;-43
2021/03/06 02:25:09;;;;;;;7.97;4.80;;;2.30;84.20;;;;;;5052991;28;20575;-44
2021/03/06 02:27:50;;;;;;;7.38;4.63;;;2.20;84.40;;;;;;5071472;28;20214;-44
2021/03/06 02:30:18;;;;;;;5.88;4.88;;;2.10;84.40;;;;;;5071243;28;20700;-44
2021/03/06 02:32:47;;;;;;;10.35;5.22;;;2.10;84.50;;;;;;5072714;28;20207;-43
2021/03/06 02:35:15;;;;;;;6.43;4.20;;;2.00;84.10;;;;;;5075024;28;20226;-44
2021/03/06 02:37:44;;;;;;;8.30;4.68;;;2.10;85.30;;;;;;5074838;28;20207;-44
2021/03/06 02:40:13;;;;;;;11.25;5.40;;;2.00;85.50;;;;;;5074914;28;20199;-43
2021/03/06 02:42:41;;;;;;;11.25;5.47;;;2.10;85.60;;;;;;5074504;28;20203;-43
2021/03/06 02:45:09;;;;;;;7.80;5.18;;;2.20;86.20;;;;;;5074724;28;20245;-44
2021/03/06 02:47:37;;;;;;;7.25;4.13;;;2.20;86.40;;;;;;5074878;28;20198;-43
2021/03/06 02:50:05;;;;;;;7.63;4.90;;;1.50;85.90;;;;;;5074780;28;20227;-44
2021/03/06 02:52:31;;;;;;;7.63;4.80;;;1.90;86.60;;;;;;5074243;28;20765;-44
2021/03/06 02:54:58;;;;;;;7.78;4.35;;;1.90;86.90;;;;;;5056615;28;20245;-45
2021/03/06 02:57:39;;;;;;;8.32;5.30;;;2.20;87.30;;;;;;5074682;28;20195;-43
2021/03/06 03:00:13;;;;;;;6.63;4.90;;;2.20;87.50;;;;;;5074785;28;20555;-43
2021/03/06 03:02:53;;;;;;;7.72;5.07;;;2.00;87.70;;;;;;5074075;28;20575;-44
2021/03/06 03:05:27;;;;;;;8.63;5.65;;;2.30;88.30;;;;;;5074758;28;20198;-43
2021/03/06 03:08:02;;;;;;;7.80;4.65;;;1.30;87.90;;;;;;5074583;28;20206;-44
2021/03/06 03:10:32;;;;;;;7.80;5.05;;;2.10;89.10;;;;;;5074319;28;20190;-43
2021/03/06 03:13:07;;;;;;;9.00;4.85;;;2.20;90.00;;;;;;5074011;28;20250;-45
2021/03/06 03:15:38;;;;;;;10.10;5.55;;;2.10;90.10;;;;;;5074244;28;20202;-45
2021/03/06 03:18:07;;;;;;;7.38;4.90;;;2.00;90.40;;;;;;5075111;28;20195;-44
2021/03/06 03:20:37;;;;;;;11.15;4.45;;;2.00;90.50;;;;;;5074284;28;20268;-45
2021/03/06 03:23:07;;;;;;;7.35;5.53;;;2.00;90.70;;;;;;5073719;28;20246;-44
2021/03/06 03:25:36;;;;;;;12.75;5.10;;;2.00;90.50;;;;;;5074254;28;20199;-45
2021/03/06 03:28:03;;;;;;;11.00;5.57;;;1.90;91.00;;;;;;5074177;28;20274;-44
2021/03/06 03:30:30;;;;;;;12.82;4.60;;;1.90;91.00;;;;;;5073963;28;20241;-44
2021/03/06 03:33:00;;;;;;;5.78;4.35;;;1.80;91.20;;;;;;5073798;28;20211;-45
2021/03/06 03:35:28;;;;;;;12.55;5.53;;;1.90;91.10;;;;;;5074257;28;20596;-45
2021/03/06 03:37:55;;;;;;;7.43;4.78;;;1.70;91.70;;;;;;5073959;28;20234;-44
2021/03/06 03:40:23;;;;;;;6.75;4.95;;;1.90;91.90;;;;;;5073906;28;20230;-44
2021/03/06 03:42:50;;;;;;;5.75;4.43;;;1.90;92.10;;;;;;5073409;28;20216;-44
2021/03/06 03:45:19;;;;;;;7.90;4.80;;;2.00;92.30;;;;;;5073537;28;20218;-45
2021/03/06 03:47:46;;;;;;;5.53;4.63;;;1.80;92.40;;;;;;5072786;28;20248;-46
2021/03/06 03:50:14;;;;;;;9.45;5.10;;;1.00;92.20;;;;;;5073036;28;20195;-46
2021/03/06 03:52:43;;;;;;;7.72;4.65;;;1.80;92.80;;;;;;5073320;28;20298;-46
2021/03/06 03:55:11;;;;;;;9.20;4.90;;;1.80;93.00;;;;;;5073598;28;20372;-46
2021/03/06 03:57:38;;;;;;;8.50;4.47;;;1.50;93.10;;;;;;5073493;28;20682;-46
2021/03/06 04:00:07;;;;;;;5.65;4.22;;;1.70;93.40;;;;;;5073328;28;20196;-46
2021/03/06 04:02:33;;;;;;;13.50;4.43;;;1.70;93.70;;;;;;5074577;22;20579;-48
2021/03/06 04:05:00;;;;;;;8.77;5.03;;;1.60;94.00;;;;;;5053517;28;20668;-49
2021/03/06 04:07:26;;;;;;;7.93;4.55;;;1.60;94.00;;;;;;5053782;28;20305;-49
2021/03/06 04:09:53;;;;;;;11.40;4.45;;;1.50;94.30;;;;;;5053426;28;20220;-49
2021/03/06 04:12:19;;;;;;;8.98;4.55;;;1.60;94.60;;;;;;5053212;28;20258;-48
2021/03/06 04:14:45;;;;;;;9.48;5.00;;;1.60;94.60;;;;;;5053390;28;20589;-48
2021/03/06 04:17:12;;;;;;;5.57;4.43;;;1.50;94.70;;;;;;5053316;28;20196;-48
2021/03/06 04:19:38;;;;;;;8.73;5.13;;;1.40;95.00;;;;;;5053503;28;20188;-49
2021/03/06 04:22:05;;;;;;;7.25;4.75;;;1.60;95.20;;;;;;5053235;28;20261;-49
2021/03/06 04:24:31;;;;;;;7.07;3.83;;;1.50;95.00;;;;;;5053255;28;20188;-48
2021/03/06 04:26:58;;;;;;;7.70;4.68;;;1.50;95.60;;;;;;5053182;28;20199;-49
2021/03/06 04:29:24;;;;;;;8.23;4.85;;;1.40;95.50;;;;;;5052882;28;20196;-49
2021/03/06 04:31:50;;;;;;;7.38;3.90;;;1.70;96.20;;;;;;5052685;28;20367;-48
2021/03/06 04:34:17;;;;;;;8.30;4.65;;;1.70;96.30;;;;;;5051313;28;20203;-49
2021/03/06 04:36:43;;;;;;;9.77;4.55;;;0.80;96.00;;;;;;5052892;28;20204;-48
2021/03/06 04:39:10;;;;;;;7.63;4.80;;;1.30;96.40;;;;;;5052852;28;20192;-48
2021/03/06 04:41:36;;;;;;;14.05;5.10;;;1.50;96.80;;;;;;5051701;28;20684;-48
2021/03/06 04:44:05;;;;;;;8.90;5.43;;;1.30;97.00;;;;;;5052746;28;20200;-47
2021/03/06 04:46:32;;;;;;;6.35;4.45;;;1.40;97.10;;;;;;5052877;28;20624;-49
2021/03/06 04:48:58;;;;;;;7.20;4.40;;;1.30;97.20;;;;;;5053252;28;20544;-48
2021/03/06 04:51:24;;;;;;;6.93;4.35;;;1.40;97.40;;;;;;5052687;28;20302;-47
2021/03/06 04:53:51;;;;;;;7.13;4.28;;;1.50;97.80;;;;;;5052341;28;20287;-48
2021/03/06 04:56:17;;;;;;;7.60;4.70;;;1.20;97.70;;;;;;5051928;28;20701;-47
2021/03/06 04:58:43;;;;;;;8.95;4.53;;;1.40;97.90;;;;;;5053295;28;20194;-48
2021/03/06 05:01:10;;;;;;;9.02;5.47;;;1.50;98.10;;;;;;5052418;28;20720;-49
2021/03/06 05:03:37;;;;;;;9.52;4.13;;;1.30;98.20;;;;;;5051811;28;20664;-49
2021/03/06 05:06:03;;;;;;;6.15;4.70;;;1.40;98.00;;;;;;5052718;28;20632;-47
2021/03/06 05:08:29;;;;;;;9.10;4.22;;;1.20;98.20;;;;;;5052367;28;20219;-48
2021/03/06 05:10:56;;;;;;;11.40;3.83;;;1.50;98.40;;;;;;5052331;28;20291;-48
2021/03/06 05:13:22;;;;;;;5.03;3.75;;;1.40;98.60;;;;;;5052113;28;20242;-48
2021/03/06 05:15:48;;;;;;;7.60;4.47;;;1.40;98.70;;;;;;5052343;28;20227;-48
2021/03/06 05:18:15;;;;;;;5.85;4.28;;;1.20;98.60;;;;;;5052102;28;20224;-48
2021/03/06 05:20:42;;;;;;;7.63;4.43;;;1.30;98.60;;;;;;5052933;28;20612;-49
2021/03/06 05:23:08;;;;;;;9.32;4.50;;;1.30;98.70;;;;;;5052935;28;20215;-50
2021/03/06 05:25:34;;;;;;;8.20;5.10;;;1.50;98.70;;;;;;5054595;28;20227;-51
2021/03/06 05:28:01;;;;;;;6.78;4.72;;;1.50;98.90;;;;;;5054104;28;20220;-51
2021/03/06 05:30:27;;;;;;;10.43;4.70;;;1.30;98.80;;;;;;5054016;28;20278;-51
2021/03/06 05:32:53;;;;;;;13.93;4.70;;;1.30;98.90;;;;;;5052340;28;20502;-52
2021/03/06 05:35:21;;;;;;;6.18;5.57;;;1.10;98.60;;;;;;5053704;28;20223;-50
2021/03/06 05:37:47;;;;;;;8.35;4.07;;;1.40;99.20;;;;;;5053668;28;20223;-52
2021/03/06 05:40:14;;;;;;;5.60;4.10;;;1.60;99.30;;;;;;5053525;28;20282;-53
2021/03/06 05:42:41;;;;;;;7.30;4.03;;;1.40;99.30;;;;;;5053470;28;20218;-52
2021/03/06 05:45:09;;;;;;;7.32;4.35;;;1.30;99.30;;;;;;5053393;28;20274;-52
2021/03/06 05:47:36;;;;;;;9.70;4.50;;;1.30;99.40;;;;;;5053486;28;20602;-51
2021/03/06 05:50:03;;;;;;;7.82;3.90;;;1.30;99.50;;;;;;5053182;28;20708;-51
2021/03/06 05:52:31;;;;;;;8.18;4.47;;;1.50;99.70;;;;;;5051018;28;20652;-51
2021/03/06 05:54:59;;;;;;;4.70;4.25;;;1.20;99.60;;;;;;5052875;28;20196;-51
2021/03/06 05:57:26;;;;;;;8.68;4.30;;;1.30;99.70;;;;;;5053047;28;20291;-52
2021/03/06 05:59:54;;;;;;;8.75;4.93;;;2.00;99.90;;;;;;5052771;28;20234;-50
2021/03/06 06:02:22;;;;;;;9.00;4.57;;;1.60;99.90;;;;;;5053185;28;20365;-49
2021/03/06 06:04:48;;;;;;;9.13;4.88;;;1.70;99.90;;;;;;5054708;28;20282;-49
2021/03/06 06:07:16;;;;;;;7.35;4.45;;;2.00;99.90;;;;;;5057327;28;20200;-48
2021/03/06 06:09:44;;;;;;;7.88;3.78;;;1.50;99.80;;;;;;5060368;28;20192;-50
2021/03/06 06:12:10;;;;;;;8.07;4.35;;;1.90;99.90;;;;;;5057518;28;20621;-49
2021/03/06 06:14:38;;;;;;;9.82;4.40;;;1.80;99.90;;;;;;5056801;28;20196;-49
2021/03/06 06:17:06;;;;;;;9.90;6.00;;;1.40;99.80;;;;;;5054385;28;20281;-49
2021/03/06 06:19:35;;;;;;;7.03;4.28;;;1.90;99.90;;;;;;5055465;28;20202;-51
2021/03/06 06:22:03;;;;;;;7.22;4.70;;;1.80;99.90;;;;;;5054165;28;20239;-49
2021/03/06 06:24:29;;;;;;;9.18;4.88;;;2.30;99.90;;;;;;5053659;28;20392;-49
2021/03/06 06:27:00;;;;;;;11.90;5.15;;;2.30;99.90;;;;;;5055419;28;20196;-49
2021/03/06 06:29:36;;;;;;;7.15;5.20;;;2.30;99.90;;;;;;5054107;28;20707;-49
2021/03/06 06:32:03;;;;;;;10.85;5.15;;;2.40;99.90;;;;;;5055143;28;20223;-49
2021/03/06 06:34:29;;;;;;;9.40;5.82;;;2.20;99.60;;;;;;5054951;28;20258;-49
2021/03/06 06:36:55;;;;;;;8.23;4.53;;;2.50;99.60;;;;;;5055019;28;20200;-49
2021/03/06 06:39:29;;;;;;;8.15;5.28;;;2.50;99.20;;;;;;5053846;28;20287;-50
2021/03/06 06:41:57;;;;;;;11.18;5.75;;;2.50;99.60;;;;;;5053758;28;20697;-49
2021/03/06 06:44:25;;;;;;;5.97;3.78;;;2.70;99.70;;;;;;5054585;28;20227;-49
2021/03/06 06:46:53;;;;;;;10.30;4.53;;;2.60;99.60;;;;;;5055267;28;20207;-50
2021/03/06 06:49:20;;;;;;;6.55;4.40;;;2.50;99.50;;;;;;5054853;28;20219;-49
2021/03/06 06:52:00;;;;;;;18.73;5.30;;;2.50;99.60;;;;;;5053698;28;20251;-50
2021/03/06 06:54:27;;;;;;;6.25;4.70;;;2.80;99.60;;;;;;5054586;28;20203;-50
2021/03/06 06:57:07;;;;;;;7.43;4.25;;;2.40;99.10;;;;;;5054665;28;20192;-51
2021/03/06 06:59:33;;;;;;;10.52;4.75;;;2.60;99.50;;;;;;5054637;28;20191;-50
2021/03/06 07:02:04;;;;;;;9.80;4.10;;;2.60;99.70;;;;;;5054390;28;20216;-50
2021/03/06 07:04:43;;;;;;;10.25;4.80;;;2.40;99.80;;;;;;5054590;28;20220;-50
2021/03/06 07:07:13;;;;;;;8.40;3.78;;;2.50;99.90;;;;;;5054687;28;20271;-50
2021/03/06 07:10:09;;;;;;;10.25;3.90;;;2.50;99.60;;;;;;5054759;28;20211;-49
2021/03/06 07:12:39;;;;;;;11.27;5.47;;;2.60;99.90;;;;;;5052347;28;20239;-50
2021/03/06 07:15:17;;;;;;;13.68;5.40;;;2.50;99.80;;;;;;5054508;28;20690;-50
2021/03/06 07:17:45;;;;;;;14.73;4.47;;;2.50;99.80;;;;;;5053620;28;20287;-50
2021/03/06 07:20:26;;;;;;;9.80;5.82;;;2.60;99.30;;;;;;5054240;28;20200;-49
2021/03/06 07:22:55;;;;;;;6.15;3.97;;;2.60;99.60;;;;;;5053813;28;20246;-50
2021/03/06 07:25:22;;;;;;;12.55;4.78;;;2.10;99.30;;;;;;5054145;28;20279;-51
2021/03/06 07:27:49;;;;;;;10.95;4.50;;;2.60;99.70;;;;;;5054169;28;20203;-50
2021/03/06 07:30:17;;;;;;;17.30;5.07;;;2.50;99.70;;;;;;5054536;28;20192;-49
2021/03/06 07:32:45;;;;;;;6.85;3.70;;;2.60;99.70;;;;;;5053851;28;20634;-49
2021/03/06 07:35:13;;;;;;;6.68;3.55;;;2.70;99.90;;;;;;5054113;28;20646;-49
2021/03/06 07:37:41;;;;;;;7.28;3.67;;;2.10;99.50;;;;;;5054429;28;20196;-50
2021/03/06 07:40:09;;;;;;;9.90;4.95;;;2.80;99.70;;;;;;5053897;28;20672;-50
2021/03/06 07:42:43;;;;;;;17.05;5.30;;;2.60;99.90;;;;;;5053469;28;20212;-50
2021/03/06 07:45:14;;;;;;;9.18;4.28;;;2.70;99.90;;;;;;5053983;28;20691;-49
2021/03/06 07:47:42;;;;;;;18.67;5.13;;;2.80;99.60;;;;;;5053735;28;20200;-50
2021/03/06 07:50:15;;;;;;;6.03;3.50;;;3.00;99.90;;;;;;5053624;28;20613;-50
2021/03/06 07:52:42;;;;;;;8.52;3.92;;;3.00;99.90;;;;;;5053334;28;20224;-50
2021/03/06 07:55:11;;;;;;;11.38;4.00;;;2.90;99.80;;;;;;5052259;28;20196;-50
2021/03/06 07:58:01;;;;;;;8.65;3.90;;;3.00;99.70;;;;;;5053668;28;20220;-50
2021/03/06 08:00:46;;;;;;;11.35;3.13;;;3.00;99.90;;;;;;5054063;28;20294;-49
2021/03/06 08:03:37;;;;;;;5.88;3.67;;;3.00;99.80;;;;;;5052995;28;20312;-50
2021/03/06 08:06:18;;;;;;;11.60;2.95;;;2.90;99.70;;;;;;5054062;28;20228;-50
2021/03/06 08:08:59;;;;;;;5.85;2.60;;;3.00;99.70;;;;;;5053289;28;20203;-50
2021/03/06 08:11:26;;;;;;;6.28;3.20;;;3.00;99.30;;;;;;5053233;28;20208;-49
2021/03/06 08:13:55;;;;;;;8.07;3.75;;;3.20;99.30;;;;;;5051671;28;20269;-51
2021/03/06 08:16:41;;;;;;;7.65;3.20;;;3.50;99.90;;;;;;5053211;28;20188;-49
2021/03/06 08:19:28;;;;;;;7.90;3.40;;;3.20;99.70;;;;;;5053339;28;20196;-51
2021/03/06 08:21:56;;;;;;;10.52;3.17;;;3.20;99.10;;;;;;5053127;28;20216;-49
2021/03/06 08:24:26;;;;;;;5.65;2.90;;;3.30;99.70;;;;;;5052707;28;20194;-50
2021/03/06 08:27:17;;;;;;;15.32;4.20;;;3.30;99.70;;;;;;5052791;28;20257;-49
2021/03/06 08:29:44;;;;;;;7.57;3.25;;;3.20;99.60;;;;;;5051856;28;20221;-50
2021/03/06 08:32:13;;;;;;;6.97;3.03;;;3.30;99.70;;;;;;5052540;28;20751;-50
2021/03/06 08:34:45;;;;;;;11.85;3.13;;;3.30;99.80;;;;;;5052961;28;20196;-50
2021/03/06 08:37:34;;;;;;;7.97;4.03;;;3.50;99.40;;;;;;5052827;28;20222;-50
2021/03/06 08:40:12;;;;;;;7.10;2.88;;;3.40;99.90;;;;;;5053047;28;20261;-50
2021/03/06 08:42:41;;;;;;;7.70;4.10;;;3.20;99.80;;;;;;5052243;28;20223;-49
2021/03/06 08:45:11;;;;;;;9.38;3.92;;;3.40;99.90;;;;;;5052152;28;20592;-48
2021/03/06 08:47:39;;;;;;;7.90;3.65;;;3.20;99.90;;;;;;5052597;28;20200;-50
2021/03/06 08:50:08;;;;;;;9.40;3.95;;;3.10;99.90;;;;;;5052391;28;20200;-50
2021/03/06 08:52:35;;;;;;;9.77;3.20;;;3.50;99.90;;;;;;5051815;28;20224;-49
2021/03/06 08:55:03;;;;;;;5.50;4.05;;;3.60;99.90;;;;;;5052190;28;20275;-49
2021/03/06 08:57:32;;;;;;;6.80;3.60;;;3.00;99.90;;;;;;5052162;28;20657;-50
2021/03/06 09:00:00;;;;;;;11.88;4.35;;;3.70;99.90;;;;;;5050932;28;20262;-49
2021/03/06 09:02:31;;;;;;;10.73;4.05;;;3.70;99.90;;;;;;5051718;28;20240;-50
2021/03/06 09:05:10;;;;;;;9.98;3.65;;;3.70;99.90;;;;;;5052257;28;20192;-50
2021/03/06 09:07:39;;;;;;;14.00;6.03;;;3.80;99.90;;;;;;5052048;28;20210;-49
2021/03/06 09:10:31;;;;;;;8.50;4.28;;;3.50;99.90;;;;;;5052078;28;20634;-48
2021/03/06 09:13:00;;;;;;;7.00;3.88;;;3.60;99.90;;;;;;5049881;28;20239;-49
2021/03/06 09:15:33;;;;;;;12.65;3.50;;;3.60;99.90;;;;;;5052062;28;20192;-49
2021/03/06 09:18:00;;;;;;;9.55;4.15;;;3.70;99.90;;;;;;5051957;28;20199;-49
2021/03/06 09:20:29;;;;;;;6.82;3.25;;;4.10;99.90;;;;;;5052279;28;20192;-49
2021/03/06 09:22:55;;;;;;;7.45;4.22;;;3.70;99.90;;;;;;5052054;28;20680;-50
2021/03/06 09:25:32;;;;;;;7.18;3.38;;;3.80;99.90;;;;;;5052275;28;20208;-49
2021/03/06 09:27:59;;;;;;;28.90;14.90;;;3.90;99.90;;;;;;5052162;28;20226;-49
2021/03/06 09:30:28;;;;;;;16.75;7.28;;;4.00;99.90;;;;;;5051485;28;20555;-51
2021/03/06 09:32:55;;;;;;;7.68;3.78;;;4.30;99.90;;;;;;5053906;28;20239;-49
2021/03/06 09:35:23;;;;;;;7.55;3.05;;;4.30;99.90;;;;;;5053856;28;20254;-47
2021/03/06 09:38:05;;;;;;;7.85;3.05;;;4.70;99.90;;;;;;5051306;28;20759;-47
2021/03/06 09:40:38;;;;;;;7.13;2.40;;;4.70;99.90;;;;;;5051885;28;20204;-48
2021/03/06 09:43:04;;;;;;;10.23;3.58;;;4.30;99.90;;;;;;5052023;28;20204;-48
2021/03/06 09:45:30;;;;;;;7.93;3.30;;;5.00;99.90;;;;;;5052118;28;20203;-47
2021/03/06 09:48:02;;;;;;;8.50;3.30;;;5.10;99.90;;;;;;5050541;28;20281;-47
2021/03/06 09:50:29;;;;;;;11.07;4.05;;;5.20;99.90;;;;;;5052099;28;20199;-50
2021/03/06 09:52:56;;;;;;;9.95;3.70;;;5.40;99.90;;;;;;5051819;28;20349;-49
2021/03/06 09:55:23;;;;;;;11.10;3.53;;;5.60;99.60;;;;;;5050516;28;20279;-47
2021/03/06 09:57:49;;;;;;;10.65;3.85;;;5.80;99.60;;;;;;5052073;28;20555;-48
2021/03/06 10:00:24;;;;;;;16.25;5.50;;;6.00;99.40;;;;;;5051814;28;20202;-47
2021/03/06 10:02:51;;;;;;;11.57;4.00;;;6.20;99.20;;;;;;5065371;22;20686;-46
2021/03/06 10:05:24;;;;;;;7.32;3.53;;;6.20;99.10;;;;;;5051540;28;20261;-46
2021/03/06 10:07:54;;;;;;;14.43;3.40;;;5.90;98.90;;;;;;5050677;28;20193;-46
2021/03/06 10:10:24;;;;;;;9.07;3.27;;;5.90;99.00;;;;;;5050563;28;20205;-46
2021/03/06 10:12:52;;;;;;;9.90;3.40;;;6.30;99.10;;;;;;5050676;28;20849;-46
2021/03/06 10:15:19;;;;;;;7.77;5.17;;;6.30;99.00;;;;;;5051021;28;20250;-46
2021/03/06 10:17:46;;;;;;;12.53;3.87;;;6.30;99.00;;;;;;5033075;28;20425;-46
2021/03/06 10:20:13;;;;;;;9.40;4.03;;;6.40;98.60;;;;;;5050330;28;20939;-45
2021/03/06 10:22:45;;;;;;;10.97;3.93;;;6.90;98.90;;;;;;5050535;28;20426;-46
2021/03/06 10:25:13;;;;;;;13.47;3.43;;;7.40;99.00;;;;;;5050708;28;20455;-46
2021/03/06 10:27:43;;;;;;;9.33;3.60;;;6.90;98.70;;;;;;5050755;28;20413;-46
2021/03/06 10:30:15;;;;;;;11.53;4.30;;;6.80;98.70;;;;;;5051261;28;20406;-46
2021/03/06 10:32:42;;;;;;;6.10;4.10;;;6.90;98.60;;;;;;5051315;28;20457;-46
2021/03/06 10:35:34;;;;;;;7.30;3.03;;;7.00;98.60;;;;;;5051340;28;20456;-46
2021/03/06 10:38:00;;;;;;;7.63;3.83;;;6.80;98.60;;;;;;5051021;28;20436;-46
2021/03/06 10:40:49;;;;;;;9.13;4.23;;;6.80;98.60;;;;;;5050290;28;20925;-46
2021/03/06 10:43:31;;;;;;;9.43;3.80;;;6.60;98.70;;;;;;5050149;28;20455;-46
2021/03/06 10:46:12;;;;;;;14.30;3.83;;;6.60;98.90;;;;;;5032478;28;20914;-46
2021/03/06 10:48:39;;;;;;;12.63;7.40;;;7.00;99.10;;;;;;5050468;28;20485;-47
2021/03/06 10:51:07;;;;;;;9.47;4.20;;;6.30;99.00;;;;;;5050465;28;20432;-46
2021/03/06 10:53:34;;;;;;;7.23;3.43;;;6.80;98.80;;;;;;5051925;28;20447;-47
2021/03/06 10:56:04;;;;;;;9.07;4.80;;;7.10;98.90;;;;;;5054194;28;20802;-47
2021/03/06 10:58:45;;;;;;;14.73;5.40;;;7.10;98.60;;;;;;5054004;28;20474;-47
2021/03/06 11:01:15;;;;;;;9.07;4.40;;;7.10;98.50;;;;;;5054758;28;20414;-47
2021/03/06 11:03:45;;;;;;;8.40;4.87;;;6.90;98.30;;;;;;5054260;28;20462;-47
2021/03/06 11:06:12;;;;;;;7.77;5.10;;;6.70;98.60;;;;;;5054858;28;20445;-48
2021/03/06 11:08:40;;;;;;;10.80;5.53;;;6.20;99.20;;;;;;5054364;28;20430;-47
2021/03/06 11:11:07;;;;;;;11.53;6.37;;;6.40;99.90;;;;;;5054273;28;20508;-47
2021/03/06 11:13:39;;;;;;;12.10;6.27;;;6.30;99.90;;;;;;5053611;28;20458;-47
2021/03/06 11:16:07;;;;;;;7.53;4.73;;;6.40;99.90;;;;;;5054048;28;20536;-48
2021/03/06 11:18:36;;;;;;;8.37;4.60;;;6.20;99.90;;;;;;5054547;28;20443;-47
2021/03/06 11:21:02;;;;;;;4.80;4.30;;;6.30;99.90;;;;;;5054415;28;20801;-47
2021/03/06 11:23:29;;;;;;;8.10;5.00;;;6.10;99.90;;;;;;5034993;28;20468;-47
2021/03/06 11:25:55;;;;;;;11.73;5.72;;;6.10;99.90;;;;;;5053293;28;20481;-47
2021/03/06 11:28:21;;;;;;;14.77;5.50;;;6.10;99.90;;;;;;5053092;28;20196;-47
2021/03/06 11:30:48;;;;;;;17.60;6.28;;;6.20;99.90;;;;;;5053500;28;20207;-47
2021/03/06 11:33:17;;;;;;;13.75;6.55;;;6.00;99.90;;;;;;5053284;28;20725;-47
2021/03/06 11:35:44;;;;;;;12.20;5.97;;;6.20;99.90;;;;;;5053079;28;20197;-47
2021/03/06 11:38:12;;;;;;;7.20;5.72;;;5.60;99.90;;;;;;5052867;28;20440;-48
2021/03/06 11:40:42;;;;;;;9.23;6.03;;;6.00;99.90;;;;;;5053164;28;20676;-47
2021/03/06 11:43:09;;;;;;;9.10;5.80;;;6.00;99.90;;;;;;5052226;28;20511;-47
2021/03/06 11:45:36;;;;;;;8.87;5.37;;;6.00;99.90;;;;;;5052830;28;20779;-47
2021/03/06 11:48:02;;;;;;;13.07;6.27;;;6.10;99.90;;;;;;5052196;28;20436;-47
2021/03/06 11:50:32;;;;;;;8.43;5.80;;;6.20;99.90;;;;;;5053172;28;20435;-47
2021/03/06 11:52:59;;;;;;;12.70;6.37;;;6.70;99.90;;;;;;5052504;28;20483;-47
2021/03/06 11:55:25;;;;;;;13.37;6.23;;;6.60;99.90;;;;;;5052855;28;20459;-48
2021/03/06 11:57:51;;;;;;;11.23;6.30;;;6.70;99.90;;;;;;5052717;28;20923;-47
2021/03/06 12:00:21;;;;;;;11.60;6.00;;;6.80;99.90;;;;;;5052814;28;20823;-47
2021/03/06 12:02:47;;;;;;;8.30;5.53;;;7.20;99.90;;;;;;5034579;28;20453;-46
2021/03/06 12:05:14;;;;;;;11.27;6.23;;;6.70;99.90;;;;;;5052976;28;20523;-47
2021/03/06 12:07:42;;;;;;;8.70;6.00;;;6.80;99.90;;;;;;5035367;28;20947;-47
2021/03/06 12:10:10;;;;;;;17.20;6.90;;;6.50;99.90;;;;;;5035247;28;20456;-46
2021/03/06 12:12:37;;;;;;;12.60;7.00;;;6.30;99.90;;;;;;5052437;28;20501;-47
2021/03/06 12:15:04;;;;;;;10.23;6.93;;;6.40;99.90;;;;;;5052929;28;20442;-46
2021/03/06 12:17:30;;;;;;;14.87;6.17;;;6.50;99.90;;;;;;5053058;28;20827;-47
2021/03/06 12:19:58;;;;;;;14.73;6.45;;;5.80;99.90;;;;;;5052322;28;20429;-47
2021/03/06 12:22:24;;;;;;;10.30;5.70;;;5.80;99.90;;;;;;5051686;28;20233;-47
2021/03/06 12:24:51;;;;;;;15.82;6.10;;;6.30;99.90;;;;;;5051917;28;20433;-46
2021/03/06 12:27:18;;;;;;;18.10;6.80;;;6.10;99.90;;;;;;5052343;28;20197;-46
2021/03/06 12:29:44;;;;;;;9.90;6.43;;;6.10;99.90;;;;;;5052029;28;20420;-47
2021/03/06 12:32:11;;;;;;;11.85;6.68;;;5.70;99.90;;;;;;5052462;28;20502;-47
2021/03/06 12:34:38;;;;;;;10.93;6.27;;;6.00;99.90;;;;;;5051920;28;20283;-47
2021/03/06 12:37:05;;;;;;;11.07;7.40;;;6.10;99.90;;;;;;5051651;28;20415;-47
2021/03/06 12:39:31;;;;;;;16.67;7.50;;;5.90;99.90;;;;;;5052659;28;20948;-47
2021/03/06 12:41:59;;;;;;;12.45;7.57;;;6.20;99.90;;;;;;5052753;28;20468;-47
2021/03/06 12:44:25;;;;;;;14.57;6.57;;;6.40;99.90;;;;;;5051805;28;20681;-47
2021/03/06 12:46:52;;;;;;;8.53;5.30;;;5.90;99.90;;;;;;5051284;28;20447;-47
2021/03/06 12:49:19;;;;;;;11.20;6.10;;;6.00;99.90;;;;;;5051626;28;20874;-46
2021/03/06 12:51:45;;;;;;;10.63;4.37;;;6.10;99.90;;;;;;5051396;28;20595;-47
2021/03/06 12:54:13;;;;;;;5.87;4.70;;;6.20;99.90;;;;;;5051380;28;20910;-48
2021/03/06 12:56:39;;;;;;;7.77;4.83;;;6.10;99.90;;;;;;5051916;28;20443;-47
2021/03/06 12:59:06;;;;;;;10.53;5.57;;;5.90;99.90;;;;;;5052035;28;20430;-49
2021/03/06 13:01:34;;;;;;;8.10;5.40;;;6.20;99.90;;;;;;5051529;28;20439;-47
2021/03/06 13:04:00;;;;;;;11.93;6.60;;;5.90;99.90;;;;;;5050949;28;20421;-48